createdAt,value
2023-05-20T00:03:46.089Z,1.40
2023-05-20T00:08:48.083Z,1.30
2023-05-20T00:13:50.003Z,1.60
2023-05-20T00:18:52.098Z,1.20
2023-05-20T00:23:54.080Z,1.40
2023-05-20T00:28:56.100Z,1.33
2023-05-20T00:33:58.139Z,1.30
2023-05-20T00:39:00.102Z,1.20
2023-05-20T00:44:02.046Z,1.35
2023-05-20T00:49:04.220Z,1.30
2023-05-20T00:54:06.298Z,1.50
2023-05-20T00:59:08.273Z,1.40
2023-05-20T01:04:10.237Z,1.30
2023-05-20T01:09:13.352Z,1.40
2023-05-20T01:14:15.286Z,1.60
2023-05-20T01:19:35.848Z,1.40
2023-05-20T01:24:37.916Z,1.65
2023-05-20T01:29:40.528Z,1.30
2023-05-20T01:34:42.583Z,1.33
2023-05-20T01:39:44.569Z,1.10
2023-05-20T01:44:46.451Z,1.30
2023-05-20T01:49:48.447Z,1.40
2023-05-20T01:54:50.404Z,1.65
2023-05-20T01:59:52.429Z,1.25
2023-05-20T02:04:54.526Z,1.30
2023-05-20T02:09:56.513Z,1.50
2023-05-20T02:14:58.538Z,1.30
2023-05-20T02:20:00.672Z,1.20
2023-05-20T02:25:02.994Z,1.30
2023-05-20T02:30:06.977Z,1.50
2023-05-20T02:35:09.390Z,3.35
2023-05-20T02:40:11.569Z,3.80
2023-05-20T02:45:13.669Z,3.60
2023-05-20T02:50:15.733Z,2.03
2023-05-20T02:55:17.778Z,1.75
2023-05-20T03:00:19.711Z,1.58
2023-05-20T03:05:21.723Z,1.20
2023-05-20T03:10:23.689Z,1.40
2023-05-20T03:15:25.684Z,1.37
2023-05-20T03:20:27.618Z,1.47
2023-05-20T03:25:31.170Z,1.50
2023-05-20T03:30:33.197Z,1.30
2023-05-20T03:35:35.413Z,1.40
2023-05-20T03:45:39.338Z,1.73
2023-05-20T03:50:41.302Z,1.70
2023-05-20T03:55:43.269Z,1.60
2023-05-20T04:00:45.219Z,1.88
2023-05-20T04:05:47.194Z,1.40
2023-05-20T04:10:49.175Z,1.50
2023-05-20T04:15:52.353Z,1.30
2023-05-20T04:20:57.531Z,1.48
2023-05-20T04:25:59.530Z,1.40
2023-05-20T04:31:01.980Z,1.15
2023-05-20T04:41:07.064Z,1.63
2023-05-20T04:46:09.036Z,1.25
2023-05-20T04:51:11.386Z,1.45
2023-05-20T04:56:13.326Z,2.25
2023-05-20T05:01:15.348Z,1.42
2023-05-20T05:06:17.574Z,2.33
2023-05-20T05:11:19.625Z,1.58
2023-05-20T05:16:21.716Z,1.30
2023-05-20T05:21:23.747Z,1.50
2023-05-20T05:26:26.239Z,1.88
2023-05-20T05:31:28.320Z,1.50
2023-05-20T05:36:33.680Z,1.52
2023-05-20T05:41:35.750Z,1.50
2023-05-20T05:46:37.859Z,1.50
2023-05-20T05:51:39.841Z,1.40
2023-05-20T05:56:41.931Z,1.50
2023-05-20T06:01:43.953Z,1.45
2023-05-20T06:06:46.025Z,1.70
2023-05-20T06:11:47.895Z,1.50
2023-05-20T06:16:49.771Z,2.03
2023-05-20T06:21:51.748Z,1.73
2023-05-20T06:26:53.757Z,1.45
2023-05-20T06:31:55.719Z,1.40
2023-05-20T06:36:57.732Z,1.40
2023-05-20T06:47:01.348Z,1.30
2023-05-20T06:57:05.326Z,1.23
2023-05-20T07:02:07.505Z,1.40
2023-05-20T07:07:09.538Z,1.95
2023-05-20T07:12:11.551Z,1.30
2023-05-20T07:17:13.469Z,1.25
2023-05-20T07:22:15.288Z,1.15
2023-05-20T07:27:17.211Z,1.55
2023-05-20T07:32:19.156Z,1.20
2023-05-20T07:37:21.082Z,1.13
2023-05-20T07:42:23.041Z,1.23
2023-05-20T07:47:25.141Z,1.17
2023-05-20T07:52:27.134Z,1.50
2023-05-20T07:57:29.033Z,1.20
2023-05-20T08:02:30.989Z,1.50
2023-05-20T08:07:33.051Z,1.20
2023-05-20T08:17:36.526Z,1.33
2023-05-20T08:22:39.011Z,1.42
2023-05-20T08:27:40.910Z,1.52
2023-05-20T08:32:42.834Z,2.65
2023-05-20T08:42:49.691Z,1.70
2023-05-20T08:47:51.610Z,1.55
2023-05-20T08:52:53.775Z,1.40
2023-05-20T08:57:55.918Z,1.50
2023-05-20T09:03:01.015Z,1.90
2023-05-20T09:08:12.509Z,1.33
2023-05-20T09:13:14.527Z,1.85
2023-05-20T09:18:16.407Z,1.65
2023-05-20T09:23:19.397Z,1.88
2023-05-20T09:28:23.193Z,1.60
2023-05-20T09:33:28.219Z,1.60
2023-05-20T09:38:31.233Z,1.80
2023-05-20T09:43:33.241Z,1.80
2023-05-20T09:48:38.173Z,1.42
2023-05-20T09:53:40.277Z,1.85
2023-05-20T09:58:42.988Z,1.67
2023-05-20T10:03:45.022Z,1.65
2023-05-20T10:09:14.813Z,1.45
2023-05-20T10:14:26.755Z,1.83
2023-05-20T10:19:35.099Z,2.00
2023-05-20T10:24:41.298Z,1.88
2023-05-20T10:34:53.938Z,1.88
2023-05-20T10:40:11.731Z,2.00
2023-05-20T10:45:25.324Z,2.03
2023-05-20T10:50:37.055Z,1.90
2023-05-20T10:55:39.720Z,1.80
2023-05-20T11:00:41.904Z,1.90
2023-05-20T11:10:46.700Z,2.00
2023-05-20T11:15:49.398Z,2.88
2023-05-20T11:20:51.368Z,1.90
2023-05-20T11:25:53.525Z,2.10
2023-05-20T11:30:55.578Z,2.33
2023-05-20T11:35:57.395Z,2.50
2023-05-20T11:40:59.584Z,2.50
2023-05-20T11:51:03.300Z,2.40
2023-05-20T11:56:05.333Z,2.53
2023-05-20T12:01:21.125Z,2.80
2023-05-20T12:06:24.001Z,2.50
2023-05-20T12:11:25.915Z,2.10
2023-05-20T12:16:27.938Z,2.50
2023-05-20T12:21:29.995Z,2.47
2023-05-20T12:26:31.880Z,2.30
2023-05-20T12:31:35.162Z,2.63
2023-05-20T12:36:37.195Z,5.30
2023-05-20T12:41:39.112Z,2.88
2023-05-20T12:46:41.171Z,2.50
2023-05-20T12:51:43.132Z,2.50
2023-05-20T12:56:45.169Z,2.47
2023-05-20T13:01:47.161Z,2.17
2023-05-20T13:06:49.130Z,2.50
2023-05-20T13:11:51.077Z,2.20
2023-05-20T13:16:52.932Z,2.40
2023-05-20T13:21:54.867Z,2.10
2023-05-20T13:26:56.784Z,2.20
2023-05-20T13:32:00.962Z,2.10
2023-05-20T13:37:03.805Z,1.90
2023-05-20T13:42:05.994Z,2.05
2023-05-20T13:47:07.871Z,2.35
2023-05-20T13:52:09.823Z,2.70
2023-05-20T13:57:11.947Z,2.60
2023-05-20T14:02:13.922Z,2.15
2023-05-20T14:07:16.061Z,2.42
2023-05-20T14:12:17.994Z,2.45
2023-05-20T14:17:19.954Z,2.42
2023-05-20T14:22:21.956Z,2.50
2023-05-20T14:27:23.944Z,2.72
2023-05-20T14:32:25.964Z,2.20
2023-05-20T14:37:27.984Z,2.55
2023-05-20T14:42:29.941Z,1.83
2023-05-20T14:47:31.865Z,2.00
2023-05-20T14:52:33.875Z,1.98
2023-05-20T15:02:37.925Z,2.13
2023-05-20T15:12:41.514Z,2.45
2023-05-20T15:17:43.552Z,2.10
2023-05-20T15:22:45.524Z,2.08
2023-05-20T15:27:47.387Z,2.15
2023-05-20T15:32:49.348Z,2.20
2023-05-20T15:37:51.307Z,2.30
2023-05-20T15:42:53.252Z,2.33
2023-05-20T15:47:55.373Z,2.33
2023-05-20T15:52:57.399Z,2.60
2023-05-20T15:57:59.479Z,2.50
2023-05-20T16:03:01.435Z,2.20
2023-05-20T16:08:03.341Z,2.45
2023-05-20T16:13:05.255Z,3.10
2023-05-20T16:18:07.235Z,3.10
2023-05-20T16:23:09.152Z,3.20
2023-05-20T16:28:11.258Z,3.22
2023-05-20T16:33:13.388Z,3.70
2023-05-20T16:38:15.361Z,3.08
2023-05-20T16:43:17.263Z,2.65
2023-05-20T16:48:19.244Z,2.38
2023-05-20T16:53:21.181Z,2.50
2023-05-20T16:58:23.171Z,2.45
2023-05-20T17:03:25.200Z,2.38
2023-05-20T17:08:27.236Z,2.40
2023-05-20T17:13:29.224Z,2.90
2023-05-20T17:18:31.206Z,3.70
2023-05-20T17:23:33.083Z,4.65
2023-05-20T17:28:34.998Z,4.18
2023-05-20T17:33:37.100Z,5.95
2023-05-20T17:38:39.215Z,5.85
2023-05-20T17:43:41.139Z,8.57
2023-05-20T17:48:42.978Z,8.95
2023-05-20T17:53:44.916Z,9.65
2023-05-20T17:58:47.001Z,10.88
2023-05-20T18:03:49.254Z,10.18
2023-05-20T18:13:52.875Z,5.32
2023-05-20T18:18:55.329Z,5.27
2023-05-20T18:23:57.194Z,5.20
2023-05-20T18:28:59.048Z,4.75
2023-05-20T18:34:01.061Z,4.78
2023-05-20T18:39:03.050Z,4.97
2023-05-20T18:44:05.784Z,5.78
2023-05-20T18:49:08.100Z,5.45
2023-05-20T18:54:10.029Z,5.22
2023-05-20T18:59:11.859Z,5.78
2023-05-20T19:04:13.732Z,4.93
2023-05-20T19:09:15.637Z,5.30
2023-05-20T19:14:17.508Z,5.35
2023-05-20T19:19:19.543Z,6.70
2023-05-20T19:24:21.595Z,7.85
2023-05-20T19:29:23.631Z,6.18
2023-05-20T19:34:25.625Z,5.25
2023-05-20T19:39:27.702Z,4.68
2023-05-20T19:44:29.649Z,5.88
2023-05-20T19:49:31.652Z,5.38
2023-05-20T19:54:33.815Z,5.47
2023-05-20T19:59:35.810Z,5.88
2023-05-20T20:04:37.838Z,5.57
2023-05-20T20:09:39.744Z,5.80
2023-05-20T20:14:41.681Z,5.15
2023-05-20T20:19:44.431Z,4.70
2023-05-20T20:24:46.290Z,4.90
2023-05-20T20:29:48.244Z,4.57
2023-05-20T20:34:50.252Z,5.05
2023-05-20T20:39:52.224Z,4.97
2023-05-20T20:44:54.254Z,4.60
2023-05-20T20:49:56.491Z,4.60
2023-05-20T20:54:58.484Z,4.78
2023-05-20T21:00:00.771Z,4.53
2023-05-20T21:05:02.721Z,4.88
2023-05-20T21:10:07.084Z,4.28
2023-05-20T21:15:09.919Z,4.15
2023-05-20T21:20:12.236Z,4.38
2023-05-20T21:25:14.112Z,4.88
2023-05-20T21:30:16.080Z,4.97
2023-05-20T21:35:17.983Z,4.90
2023-05-20T21:40:20.003Z,5.75
2023-05-20T21:45:23.141Z,5.65
2023-05-20T21:50:25.033Z,4.93
2023-05-20T21:55:27.014Z,5.37
2023-05-20T22:00:28.998Z,5.30
2023-05-20T22:05:30.954Z,5.40
2023-05-20T22:10:32.819Z,5.88
2023-05-20T22:15:34.884Z,6.03
2023-05-20T22:20:36.815Z,6.25
2023-05-20T22:25:38.674Z,6.67
2023-05-20T22:30:40.572Z,6.18
2023-05-20T22:35:42.519Z,6.05
2023-05-20T22:40:44.426Z,5.93
2023-05-20T22:45:46.306Z,5.95
2023-05-20T22:50:48.480Z,5.85
2023-05-20T22:55:50.453Z,5.60
2023-05-20T23:00:52.350Z,5.70
2023-05-20T23:05:54.210Z,6.20
2023-05-20T23:10:56.068Z,6.30
2023-05-20T23:15:57.955Z,5.82
2023-05-20T23:20:59.885Z,6.13
2023-05-20T23:26:01.849Z,6.55
2023-05-20T23:31:03.869Z,6.20
2023-05-20T23:36:06.169Z,6.03
2023-05-20T23:41:08.103Z,5.47
2023-05-20T23:46:10.125Z,5.03
2023-05-20T23:51:12.071Z,5.63
2023-05-20T23:56:13.976Z,5.50
